Buoy 41991

sailwx.info

Track history (hours):
 
Tides and Currents Weather Stations Pressure Air Temp Water Temp Dewpoint Dewpoint Depression Visibility Wind Speed Wind Dir Waves Ship Positions

Drifting buoy 41991

Last reported at 2015-Jul-03 20:53 UTC. Time now 2015-Jul-03 22:06 UTC.
Position N 27°20' W 041°47'.

Water temperature 25.8 ° C

Date/timePositionNaut miles runAvg speedWind from/ knotsBaromVisibWave heightAir tempDewpointWater temp
2015-Jul-03 20:53N 27°20' W 041°47'0 1.3 25.8
2015-Jul-03 20:42N 27°20' W 041°47'0 0.1 25.8
2015-Jul-03 19:43N 27°20' W 041°47'0 0.3 25.8
2015-Jul-03 18:57N 27°20' W 041°47'0 0.4 25.8
2015-Jul-03 18:10N 27°20' W 041°47'1 0.3 25.8
2015-Jul-03 16:27N 27°19' W 041°47'1 0.4 25.8
2015-Jul-03 14:47N 27°19' W 041°47'0 0.0 25.7
2015-Jul-03 14:09N 27°19' W 041°47'1 0.9 25.7
2015-Jul-03 13:21N 27°18' W 041°46'3 1.0 25.7
2015-Jul-03 10:46N 27°17' W 041°43'0 0.0
2015-Jul-03 09:37N 27°17' W 041°43'0 0.4 25.5
2015-Jul-03 09:19N 27°18' W 041°44'112.4 25.5
2015-Jul-03 09:12N 27°18' W 041°42'1 8.4 25.5
2015-Jul-03 09:06N 27°18' W 041°43'1 0.6 25.5
2015-Jul-03 07:57N 27°18' W 041°42'0 3.6 25.5
2015-Jul-03 07:53N 27°18' W 041°42'0 0.4 25.5
2015-Jul-03 06:49N 27°18' W 041°42'110.8 25.5
2015-Jul-03 06:42N 27°20' W 041°42'0 0.0 25.6
2015-Jul-03 05:07N 27°20' W 041°42'111.3 25.6
2015-Jul-03 05:00N 27°21' W 041°41'0 0.0 25.6
2015-Jul-03 01:42N 27°21' W 041°41'0 0.0 25.7
2015-Jul-03 00:54N 27°21' W 041°41'0 0.0 25.7
2015-Jul-03 00:08N 27°21' W 041°41'0 0.0 25.7
2015-Jul-03 00:04N 27°21' W 041°41'0 0.0 25.7
2015-Jul-02 23:21N 27°21' W 041°41'0 1.9 25.7
2015-Jul-02 23:16N 27°20' W 041°41'0 4.3 25.7
2015-Jul-02 23:11N 27°21' W 041°40'0 0.0 25.7
2015-Jul-02 22:26N 27°21' W 041°40'111.3 25.7
2015-Jul-02 22:23N 27°20' W 041°41'0 7.5 25.7
2015-Jul-02 22:19N 27°21' W 041°40'0 0.0 25.7
2015-Jul-02 21:54N 27°21' W 041°40'0 0.4 25.7
2015-Jul-02 20:53N 27°21' W 041°40'0 0.4 25.7
2015-Jul-02 20:07N 27°21' W 041°40'1 0.7 25.7
2015-Jul-02 19:12N 27°21' W 041°40'1 0.2 25.7
2015-Jul-02 14:57N 27°21' W 041°39'1 0.3 25.8
2015-Jul-02 12:04N 27°20' W 041°39'0 3.8 25.7
2015-Jul-02 11:57N 27°20' W 041°38'1 0.6 25.7
2015-Jul-02 11:03N 27°20' W 041°38'0 0.0 25.8
2015-Jul-02 09:57N 27°20' W 041°38'1 0.4 25.8
2015-Jul-02 06:57N 27°21' W 041°37'0 0.3 26.0
2015-Jul-02 05:17N 27°21' W 041°36'111.9 26.0
2015-Jul-02 05:12N 27°21' W 041°35'1 0.3 26.0
2015-Jul-02 01:18N 27°22' W 041°35'1 0.3 26.0
2015-Jul-01 22:47N 27°23' W 041°34'1 0.3 26.0
2015-Jul-01 21:05N 27°23' W 041°34'014.1
2015-Jul-01 21:03N 27°23' W 041°33'1 0.3 26.1
2015-Jul-01 16:53N 27°24' W 041°33'0 0.3 26.1
2015-Jul-01 15:10N 27°25' W 041°33'0 0.1 26.0
2015-Jul-01 14:06N 27°25' W 041°33'0 0.1 26.0
2015-Jul-01 11:27N 27°25' W 041°33'0 0.0 25.9
2015-Jul-01 10:25N 27°25' W 041°33'0 0.0 26.0
2015-Jul-01 10:05N 27°25' W 041°33'1 2.7 26.0
2015-Jul-01 09:40N 27°24' W 041°32'0 0.0 26.0
2015-Jul-01 09:35N 27°24' W 041°32'0 0.7
2015-Jul-01 08:50N 27°24' W 041°31'0 1.4 26.0
2015-Jul-01 08:29N 27°24' W 041°32'0 0.4 26.0
2015-Jul-01 08:06N 27°24' W 041°31'0 2.4 26.0
2015-Jul-01 07:57N 27°24' W 041°31'0 0.0 26.0
2015-Jul-01 07:09N 27°24' W 041°31'0 0.0 26.0
2015-Jul-01 07:07N 27°24' W 041°31'3 0.5 26.0
2015-Jun-30 23:55N 27°24' W 041°27'0 9.8 26.7
2015-Jun-30 23:53N 27°24' W 041°27'1 1.0 26.7
2015-Jun-30 23:03N 27°25' W 041°26'1 0.5 26.8
2015-Jun-30 21:11N 27°25' W 041°25'2 0.5 27.0
2015-Jun-30 17:55N 27°26' W 041°24'0 0.3 27.4
2015-Jun-30 17:05N 27°26' W 041°25'4 0.6 27.4
2015-Jun-30 11:05N 27°30' W 041°25'0 0.0 26.6
2015-Jun-30 08:10N 27°30' W 041°25'0 3.7 26.4
2015-Jun-30 08:06N 27°31' W 041°25'1 0.3 26.4
2015-Jun-30 03:57N 27°32' W 041°25'1 0.3 26.6
2015-Jun-30 01:04N 27°32' W 041°25'2 0.3 26.7
2015-Jun-29 17:11N 27°34' W 041°24'2 0.5 28.7
2015-Jun-29 13:53N 27°36' W 041°24'1 0.6 28.3
2015-Jun-29 12:56N 27°36' W 041°24'0 0.0
2015-Jun-29 12:12N 27°36' W 041°24'1 0.4 27.1
2015-Jun-29 10:07N 27°37' W 041°24'1 1.8 26.3
2015-Jun-29 09:28N 27°38' W 041°24'1 0.4 26.3
2015-Jun-29 06:44N 27°40' W 041°24'2 0.6 26.3
2015-Jun-29 04:10N 27°41' W 041°25'1 0.1 26.4
2015-Jun-28 23:50N 27°41' W 041°25'0 0.0 26.7
2015-Jun-28 23:41N 27°41' W 041°25'1 0.8 26.8
2015-Jun-28 22:54N 27°42' W 041°25'0 0.4 26.9
2015-Jun-28 22:05N 27°42' W 041°24'0 0.1 27.0
2015-Jun-28 19:58N 27°42' W 041°24'1 0.4 27.5
2015-Jun-28 18:18N 27°43' W 041°24'4 0.5 27.7
2015-Jun-28 10:52N 27°46' W 041°23'0 0.4 26.2
2015-Jun-28 09:57N 27°46' W 041°22'110.6 26.2
2015-Jun-28 09:53N 27°47' W 041°22'1 0.3 26.2
2015-Jun-28 06:02N 27°48' W 041°21'1 9.6 26.2
2015-Jun-28 05:56N 27°49' W 041°21'3 1.7 26.2
2015-Jun-28 04:16N 27°51' W 041°22'0 0.0 26.3
2015-Jun-28 01:45N 27°51' W 041°22'1 0.2 26.5
2015-Jun-27 20:11N 27°52' W 041°22'0 0.0 27.1
2015-Jun-27 20:02N 27°52' W 041°22'0 3.8 27.1
2015-Jun-27 19:57N 27°52' W 041°22'1 0.4 27.1
2015-Jun-27 15:56N 27°52' W 041°21'2 0.6 26.9
2015-Jun-27 12:47N 27°53' W 041°19'0 0.0 26.7
2015-Jun-27 12:04N 27°53' W 041°19'1 7.5
2015-Jun-27 11:57N 27°53' W 041°18'2 2.0 26.6
2015-Jun-27 11:07N 27°55' W 041°17'2 0.3 26.5
2015-Jun-27 06:11N 27°56' W 041°16'122.1 26.6
2015-Jun-27 06:08N 27°57' W 041°17'2 0.5 26.6
2015-Jun-27 01:24N 27°59' W 041°18'1 0.4 27.3
2015-Jun-26 22:51N 28°00' W 041°19'1 0.2 27.4
2015-Jun-26 20:05N 27°60' W 041°19'0 1.4 28.9
2015-Jun-26 19:53N 27°60' W 041°20'1 0.1
2015-Jun-26 16:08N 28°00' W 041°19'1 0.4 28.8
2015-Jun-26 14:08N 28°01' W 041°19'1 0.3 27.9
2015-Jun-26 12:23N 28°01' W 041°18'0 2.4 27.0
2015-Jun-26 12:20N 28°01' W 041°18'1 1.1 27.0
2015-Jun-26 11:28N 28°02' W 041°17'0 0.1 26.6
2015-Jun-26 09:07N 28°02' W 041°17'0 0.0 26.3
2015-Jun-26 08:56N 28°02' W 041°17'1 0.6 26.3
2015-Jun-26 07:47N 28°02' W 041°17'0 1.0 26.3
2015-Jun-26 07:29N 28°03' W 041°17'0 0.8 26.3
2015-Jun-26 07:20N 28°03' W 041°17'0 0.0
2015-Jun-26 07:18N 28°03' W 041°17'0 4.1 26.3
2015-Jun-26 07:11N 28°03' W 041°17'0 0.0 26.4
2015-Jun-26 06:26N 28°03' W 041°17'0 3.2
2015-Jun-26 06:25N 28°03' W 041°17'110.3 26.3
2015-Jun-26 06:19N 28°04' W 041°17'0 0.0 26.3
2015-Jun-26 04:41N 28°04' W 041°17'246.6 26.4
2015-Jun-26 04:38N 28°06' W 041°18'0 0.0 26.4
2015-Jun-26 00:53N 28°06' W 041°18'1 0.7 26.6
2015-Jun-26 00:07N 28°07' W 041°18'0 1.6 26.2
2015-Jun-26 00:01N 28°07' W 041°18'115.1 26.2
2015-Jun-25 23:58N 28°07' W 041°19'0 0.0 26.3
2015-Jun-25 23:11N 28°07' W 041°19'1 9.5 26.4
2015-Jun-25 23:04N 28°08' W 041°20'0 0.1 26.4
2015-Jun-25 20:50N 28°08' W 041°20'1 3.5 27.0
2015-Jun-25 20:34N 28°08' W 041°21'0 0.0 27.0
2015-Jun-25 20:25N 28°08' W 041°21'0 0.0 27.0
2015-Jun-25 19:11N 28°08' W 041°21'0 1.0 27.7
2015-Jun-25 19:03N 28°08' W 041°21'0 1.6 27.7
2015-Jun-25 18:55N 28°08' W 041°21'0 0.4 27.7
2015-Jun-25 17:57N 28°08' W 041°21'0 0.2 27.9
2015-Jun-25 16:19N 28°08' W 041°22'1 0.3 27.4
2015-Jun-25 14:36N 28°07' W 041°21'0 0.0 26.9
2015-Jun-25 13:37N 28°07' W 041°21'0 0.2 26.6
2015-Jun-25 12:53N 28°07' W 041°21'1 0.7 26.5
2015-Jun-25 11:54N 28°08' W 041°21'1 7.4 26.2
2015-Jun-25 11:47N 28°08' W 041°20'0 0.0 26.2
2015-Jun-25 11:04N 28°08' W 041°20'0 0.0 26.1
2015-Jun-25 09:56N 28°08' W 041°20'1 2.0 26.0
2015-Jun-25 09:35N 28°09' W 041°20'0 0.5 26.0
2015-Jun-25 09:27N 28°09' W 041°20'0 0.0 26.0
2015-Jun-25 09:11N 28°09' W 041°20'0 5.4
2015-Jun-25 09:08N 28°09' W 041°19'1 9.9 26.0
2015-Jun-25 09:04N 28°09' W 041°20'0 0.0 26.0
2015-Jun-25 08:18N 28°09' W 041°20'1 1.2 26.0
2015-Jun-25 07:51N 28°10' W 041°19'0 0.3 26.0
2015-Jun-25 07:28N 28°10' W 041°20'1 9.1 26.0
2015-Jun-25 07:23N 28°11' W 041°19'0 0.1 26.0
2015-Jun-25 06:38N 28°11' W 041°19'112.1 26.0
2015-Jun-25 06:31N 28°12' W 041°19'0 0.0 26.0
2015-Jun-25 04:56N 28°12' W 041°19'3 0.9 26.0
2015-Jun-25 01:12N 28°15' W 041°21'1 7.7 26.2
2015-Jun-25 01:06N 28°16' W 041°22'1 1.1 26.2
2015-Jun-25 00:27N 28°16' W 041°22'0 0.0 26.2
2015-Jun-24 23:34N 28°16' W 041°22'0 0.0 26.2
2015-Jun-24 23:30N 28°16' W 041°22'0 0.6 26.2
2015-Jun-24 22:45N 28°16' W 041°23'1 0.7 26.2
2015-Jun-24 21:11N 28°16' W 041°24'1 2.8 26.4
2015-Jun-24 20:46N 28°16' W 041°25'112.7 26.5
2015-Jun-24 20:42N 28°16' W 041°24'1 0.8 26.5
2015-Jun-24 19:36N 28°16' W 041°25'0 0.5 26.6
2015-Jun-24 19:20N 28°16' W 041°25'0 0.0 26.6
2015-Jun-24 19:06N 28°16' W 041°25'0 0.2 26.5
2015-Jun-24 18:11N 28°16' W 041°25'1 0.2 26.7
2015-Jun-24 13:56N 28°17' W 041°26'0 0.5 26.3
2015-Jun-24 13:02N 28°17' W 041°26'0 0.3
2015-Jun-24 12:11N 28°17' W 041°25'0 3.2 25.9
2015-Jun-24 12:07N 28°17' W 041°25'1 0.2 25.9
2015-Jun-24 09:57N 28°17' W 041°25'1 0.7 25.8
2015-Jun-24 08:19N 28°18' W 041°24'1 0.7 25.7
2015-Jun-24 07:07N 28°19' W 041°24'2 0.9 25.7
2015-Jun-24 05:06N 28°20' W 041°25'442.4 25.7
2015-Jun-24 05:01N 28°23' W 041°26'1 0.3 25.7
2015-Jun-24 00:48N 28°25' W 041°27'0 0.1 26.0
2015-Jun-23 23:54N 28°25' W 041°27'1 1.0 26.0
2015-Jun-23 22:57N 28°25' W 041°28'2 2.6 26.0
2015-Jun-23 22:09N 28°26' W 041°30'0 0.0 26.0
2015-Jun-23 20:58N 28°26' W 041°30'110.5 26.2
2015-Jun-23 20:54N 28°26' W 041°31'   26.2
Track history (hours):
 
Tides and Currents Weather Stations Pressure Air Temp Water Temp Dewpoint Dewpoint Depression Visibility Wind Speed Wind Dir Waves Ship Positions

Drifting buoy 41991

Last reported at 2015-Jul-03 20:53 UTC. Time now 2015-Jul-03 22:06 UTC.
Position N 27°20' W 041°47'.

Water temperature 25.8 ° C

Date/timePositionNaut miles runAvg speedWind from/ knotsBaromVisibWave heightAir tempDewpointWater temp
2015-Jul-03 20:53N 27°20' W 041°47'0 1.3 25.8
2015-Jul-03 20:42N 27°20' W 041°47'0 0.1 25.8
2015-Jul-03 19:43N 27°20' W 041°47'0 0.3 25.8
2015-Jul-03 18:57N 27°20' W 041°47'0 0.4 25.8
2015-Jul-03 18:10N 27°20' W 041°47'1 0.3 25.8
2015-Jul-03 16:27N 27°19' W 041°47'1 0.4 25.8
2015-Jul-03 14:47N 27°19' W 041°47'0 0.0 25.7
2015-Jul-03 14:09N 27°19' W 041°47'1 0.9 25.7
2015-Jul-03 13:21N 27°18' W 041°46'3 1.0 25.7
2015-Jul-03 10:46N 27°17' W 041°43'0 0.0
2015-Jul-03 09:37N 27°17' W 041°43'0 0.4 25.5
2015-Jul-03 09:19N 27°18' W 041°44'112.4 25.5
2015-Jul-03 09:12N 27°18' W 041°42'1 8.4 25.5
2015-Jul-03 09:06N 27°18' W 041°43'1 0.6 25.5
2015-Jul-03 07:57N 27°18' W 041°42'0 3.6 25.5
2015-Jul-03 07:53N 27°18' W 041°42'0 0.4 25.5
2015-Jul-03 06:49N 27°18' W 041°42'110.8 25.5
2015-Jul-03 06:42N 27°20' W 041°42'0 0.0 25.6
2015-Jul-03 05:07N 27°20' W 041°42'111.3 25.6
2015-Jul-03 05:00N 27°21' W 041°41'0 0.0 25.6
2015-Jul-03 01:42N 27°21' W 041°41'0 0.0 25.7
2015-Jul-03 00:54N 27°21' W 041°41'0 0.0 25.7
2015-Jul-03 00:08N 27°21' W 041°41'0 0.0 25.7
2015-Jul-03 00:04N 27°21' W 041°41'0 0.0 25.7
2015-Jul-02 23:21N 27°21' W 041°41'0 1.9 25.7
2015-Jul-02 23:16N 27°20' W 041°41'0 4.3 25.7
2015-Jul-02 23:11N 27°21' W 041°40'0 0.0 25.7
2015-Jul-02 22:26N 27°21' W 041°40'111.3 25.7
2015-Jul-02 22:23N 27°20' W 041°41'0 7.5 25.7
2015-Jul-02 22:19N 27°21' W 041°40'0 0.0 25.7
2015-Jul-02 21:54N 27°21' W 041°40'0 0.4 25.7
2015-Jul-02 20:53N 27°21' W 041°40'0 0.4 25.7
2015-Jul-02 20:07N 27°21' W 041°40'1 0.7 25.7
2015-Jul-02 19:12N 27°21' W 041°40'1 0.2 25.7
2015-Jul-02 14:57N 27°21' W 041°39'1 0.3 25.8
2015-Jul-02 12:04N 27°20' W 041°39'0 3.8 25.7
2015-Jul-02 11:57N 27°20' W 041°38'1 0.6 25.7
2015-Jul-02 11:03N 27°20' W 041°38'0 0.0 25.8
2015-Jul-02 09:57N 27°20' W 041°38'1 0.4 25.8
2015-Jul-02 06:57N 27°21' W 041°37'0 0.3 26.0
2015-Jul-02 05:17N 27°21' W 041°36'111.9 26.0
2015-Jul-02 05:12N 27°21' W 041°35'1 0.3 26.0
2015-Jul-02 01:18N 27°22' W 041°35'1 0.3 26.0
2015-Jul-01 22:47N 27°23' W 041°34'1 0.3 26.0
2015-Jul-01 21:05N 27°23' W 041°34'014.1
2015-Jul-01 21:03N 27°23' W 041°33'1 0.3 26.1
2015-Jul-01 16:53N 27°24' W 041°33'0 0.3 26.1
2015-Jul-01 15:10N 27°25' W 041°33'0 0.1 26.0
2015-Jul-01 14:06N 27°25' W 041°33'0 0.1 26.0
2015-Jul-01 11:27N 27°25' W 041°33'0 0.0 25.9
2015-Jul-01 10:25N 27°25' W 041°33'0 0.0 26.0
2015-Jul-01 10:05N 27°25' W 041°33'1 2.7 26.0
2015-Jul-01 09:40N 27°24' W 041°32'0 0.0 26.0
2015-Jul-01 09:35N 27°24' W 041°32'0 0.7
2015-Jul-01 08:50N 27°24' W 041°31'0 1.4 26.0
2015-Jul-01 08:29N 27°24' W 041°32'0 0.4 26.0
2015-Jul-01 08:06N 27°24' W 041°31'0 2.4 26.0
2015-Jul-01 07:57N 27°24' W 041°31'0 0.0 26.0
2015-Jul-01 07:09N 27°24' W 041°31'0 0.0 26.0
2015-Jul-01 07:07N 27°24' W 041°31'3 0.5 26.0
2015-Jun-30 23:55N 27°24' W 041°27'0 9.8 26.7
2015-Jun-30 23:53N 27°24' W 041°27'1 1.0 26.7
2015-Jun-30 23:03N 27°25' W 041°26'1 0.5 26.8
2015-Jun-30 21:11N 27°25' W 041°25'2 0.5 27.0
2015-Jun-30 17:55N 27°26' W 041°24'0 0.3 27.4
2015-Jun-30 17:05N 27°26' W 041°25'4 0.6 27.4
2015-Jun-30 11:05N 27°30' W 041°25'0 0.0 26.6
2015-Jun-30 08:10N 27°30' W 041°25'0 3.7 26.4
2015-Jun-30 08:06N 27°31' W 041°25'1 0.3 26.4
2015-Jun-30 03:57N 27°32' W 041°25'1 0.3 26.6
2015-Jun-30 01:04N 27°32' W 041°25'2 0.3 26.7
2015-Jun-29 17:11N 27°34' W 041°24'2 0.5 28.7
2015-Jun-29 13:53N 27°36' W 041°24'1 0.6 28.3
2015-Jun-29 12:56N 27°36' W 041°24'0 0.0
2015-Jun-29 12:12N 27°36' W 041°24'1 0.4 27.1
2015-Jun-29 10:07N 27°37' W 041°24'1 1.8 26.3
2015-Jun-29 09:28N 27°38' W 041°24'1 0.4 26.3
2015-Jun-29 06:44N 27°40' W 041°24'2 0.6 26.3
2015-Jun-29 04:10N 27°41' W 041°25'1 0.1 26.4
2015-Jun-28 23:50N 27°41' W 041°25'0 0.0 26.7
2015-Jun-28 23:41N 27°41' W 041°25'1 0.8 26.8
2015-Jun-28 22:54N 27°42' W 041°25'0 0.4 26.9
2015-Jun-28 22:05N 27°42' W 041°24'0 0.1 27.0
2015-Jun-28 19:58N 27°42' W 041°24'1 0.4 27.5
2015-Jun-28 18:18N 27°43' W 041°24'4 0.5 27.7
2015-Jun-28 10:52N 27°46' W 041°23'0 0.4 26.2
2015-Jun-28 09:57N 27°46' W 041°22'110.6 26.2
2015-Jun-28 09:53N 27°47' W 041°22'1 0.3 26.2
2015-Jun-28 06:02N 27°48' W 041°21'1 9.6 26.2
2015-Jun-28 05:56N 27°49' W 041°21'3 1.7 26.2
2015-Jun-28 04:16N 27°51' W 041°22'0 0.0 26.3
2015-Jun-28 01:45N 27°51' W 041°22'1 0.2 26.5
2015-Jun-27 20:11N 27°52' W 041°22'0 0.0 27.1
2015-Jun-27 20:02N 27°52' W 041°22'0 3.8 27.1
2015-Jun-27 19:57N 27°52' W 041°22'1 0.4 27.1
2015-Jun-27 15:56N 27°52' W 041°21'2 0.6 26.9
2015-Jun-27 12:47N 27°53' W 041°19'0 0.0 26.7
2015-Jun-27 12:04N 27°53' W 041°19'1 7.5
2015-Jun-27 11:57N 27°53' W 041°18'2 2.0 26.6
2015-Jun-27 11:07N 27°55' W 041°17'2 0.3 26.5
2015-Jun-27 06:11N 27°56' W 041°16'122.1 26.6
2015-Jun-27 06:08N 27°57' W 041°17'2 0.5 26.6
2015-Jun-27 01:24N 27°59' W 041°18'1 0.4 27.3
2015-Jun-26 22:51N 28°00' W 041°19'1 0.2 27.4
2015-Jun-26 20:05N 27°60' W 041°19'0 1.4 28.9
2015-Jun-26 19:53N 27°60' W 041°20'1 0.1
2015-Jun-26 16:08N 28°00' W 041°19'1 0.4 28.8
2015-Jun-26 14:08N 28°01' W 041°19'1 0.3 27.9
2015-Jun-26 12:23N 28°01' W 041°18'0 2.4 27.0
2015-Jun-26 12:20N 28°01' W 041°18'1 1.1 27.0
2015-Jun-26 11:28N 28°02' W 041°17'0 0.1 26.6
2015-Jun-26 09:07N 28°02' W 041°17'0 0.0 26.3
2015-Jun-26 08:56N 28°02' W 041°17'1 0.6 26.3
2015-Jun-26 07:47N 28°02' W 041°17'0 1.0 26.3
2015-Jun-26 07:29N 28°03' W 041°17'0 0.8 26.3
2015-Jun-26 07:20N 28°03' W 041°17'0 0.0
2015-Jun-26 07:18N 28°03' W 041°17'0 4.1 26.3
2015-Jun-26 07:11N 28°03' W 041°17'0 0.0 26.4
2015-Jun-26 06:26N 28°03' W 041°17'0 3.2
2015-Jun-26 06:25N 28°03' W 041°17'110.3 26.3
2015-Jun-26 06:19N 28°04' W 041°17'0 0.0 26.3
2015-Jun-26 04:41N 28°04' W 041°17'246.6 26.4
2015-Jun-26 04:38N 28°06' W 041°18'0 0.0 26.4
2015-Jun-26 00:53N 28°06' W 041°18'1 0.7 26.6
2015-Jun-26 00:07N 28°07' W 041°18'0 1.6 26.2
2015-Jun-26 00:01N 28°07' W 041°18'115.1 26.2
2015-Jun-25 23:58N 28°07' W 041°19'0 0.0 26.3
2015-Jun-25 23:11N 28°07' W 041°19'1 9.5 26.4
2015-Jun-25 23:04N 28°08' W 041°20'0 0.1 26.4
2015-Jun-25 20:50N 28°08' W 041°20'1 3.5 27.0
2015-Jun-25 20:34N 28°08' W 041°21'0 0.0 27.0
2015-Jun-25 20:25N 28°08' W 041°21'0 0.0 27.0
2015-Jun-25 19:11N 28°08' W 041°21'0 1.0 27.7
2015-Jun-25 19:03N 28°08' W 041°21'0 1.6 27.7
2015-Jun-25 18:55N 28°08' W 041°21'0 0.4 27.7
2015-Jun-25 17:57N 28°08' W 041°21'0 0.2 27.9
2015-Jun-25 16:19N 28°08' W 041°22'1 0.3 27.4
2015-Jun-25 14:36N 28°07' W 041°21'0 0.0 26.9
2015-Jun-25 13:37N 28°07' W 041°21'0 0.2 26.6
2015-Jun-25 12:53N 28°07' W 041°21'1 0.7 26.5
2015-Jun-25 11:54N 28°08' W 041°21'1 7.4 26.2
2015-Jun-25 11:47N 28°08' W 041°20'0 0.0 26.2
2015-Jun-25 11:04N 28°08' W 041°20'0 0.0 26.1
2015-Jun-25 09:56N 28°08' W 041°20'1 2.0 26.0
2015-Jun-25 09:35N 28°09' W 041°20'0 0.5 26.0
2015-Jun-25 09:27N 28°09' W 041°20'0 0.0 26.0
2015-Jun-25 09:11N 28°09' W 041°20'0 5.4
2015-Jun-25 09:08N 28°09' W 041°19'1 9.9 26.0
2015-Jun-25 09:04N 28°09' W 041°20'0 0.0 26.0
2015-Jun-25 08:18N 28°09' W 041°20'1 1.2 26.0
2015-Jun-25 07:51N 28°10' W 041°19'0 0.3 26.0
2015-Jun-25 07:28N 28°10' W 041°20'1 9.1 26.0
2015-Jun-25 07:23N 28°11' W 041°19'0 0.1 26.0
2015-Jun-25 06:38N 28°11' W 041°19'112.1 26.0
2015-Jun-25 06:31N 28°12' W 041°19'0 0.0 26.0
2015-Jun-25 04:56N 28°12' W 041°19'3 0.9 26.0
2015-Jun-25 01:12N 28°15' W 041°21'1 7.7 26.2
2015-Jun-25 01:06N 28°16' W 041°22'1 1.1 26.2
2015-Jun-25 00:27N 28°16' W 041°22'0 0.0 26.2
2015-Jun-24 23:34N 28°16' W 041°22'0 0.0 26.2
2015-Jun-24 23:30N 28°16' W 041°22'0 0.6 26.2
2015-Jun-24 22:45N 28°16' W 041°23'1 0.7 26.2
2015-Jun-24 21:11N 28°16' W 041°24'1 2.8 26.4
2015-Jun-24 20:46N 28°16' W 041°25'112.7 26.5
2015-Jun-24 20:42N 28°16' W 041°24'1 0.8 26.5
2015-Jun-24 19:36N 28°16' W 041°25'0 0.5 26.6
2015-Jun-24 19:20N 28°16' W 041°25'0 0.0 26.6
2015-Jun-24 19:06N 28°16' W 041°25'0 0.2 26.5
2015-Jun-24 18:11N 28°16' W 041°25'1 0.2 26.7
2015-Jun-24 13:56N 28°17' W 041°26'0 0.5 26.3
2015-Jun-24 13:02N 28°17' W 041°26'0 0.3
2015-Jun-24 12:11N 28°17' W 041°25'0 3.2 25.9
2015-Jun-24 12:07N 28°17' W 041°25'1 0.2 25.9
2015-Jun-24 09:57N 28°17' W 041°25'1 0.7 25.8
2015-Jun-24 08:19N 28°18' W 041°24'1 0.7 25.7
2015-Jun-24 07:07N 28°19' W 041°24'2 0.9 25.7
2015-Jun-24 05:06N 28°20' W 041°25'442.4 25.7
2015-Jun-24 05:01N 28°23' W 041°26'1 0.3 25.7
2015-Jun-24 00:48N 28°25' W 041°27'0 0.1 26.0
2015-Jun-23 23:54N 28°25' W 041°27'1 1.0 26.0
2015-Jun-23 22:57N 28°25' W 041°28'2 2.6 26.0
2015-Jun-23 22:09N 28°26' W 041°30'0 0.0 26.0
2015-Jun-23 20:58N 28°26' W 041°30'110.5 26.2
2015-Jun-23 20:54N 28°26' W 041°31'   26.2

Dump ship's entire track history